createdAt,value
2017-07-01T00:00:29.543Z,0
2017-07-01T00:01:07.824Z,0
2017-07-01T00:01:45.619Z,0
2017-07-01T00:02:23.490Z,0
2017-07-01T00:03:01.068Z,0
2017-07-01T00:03:38.630Z,0
2017-07-01T00:04:16.801Z,0
2017-07-01T00:04:54.767Z,0
2017-07-01T00:05:32.441Z,0
2017-07-01T00:06:10.424Z,0
2017-07-01T00:06:48.126Z,0
2017-07-01T00:07:25.755Z,0
2017-07-01T00:08:03.535Z,0
2017-07-01T00:08:41.206Z,0
2017-07-01T00:09:18.969Z,0
2017-07-01T00:09:57.135Z,0
2017-07-01T00:10:35.111Z,0
2017-07-01T00:11:12.879Z,0
2017-07-01T00:11:50.951Z,0
2017-07-01T00:12:28.718Z,0
2017-07-01T00:13:06.483Z,0
2017-07-01T00:13:44.350Z,0
2017-07-01T00:14:22.311Z,0
2017-07-01T00:15:00.084Z,0
2017-07-01T00:15:37.957Z,0
2017-07-01T00:16:16.124Z,0
2017-07-01T00:16:53.997Z,0
2017-07-01T00:17:31.857Z,0
2017-07-01T00:18:09.935Z,0
2017-07-01T00:18:48.108Z,0
2017-07-01T00:19:25.714Z,0
2017-07-01T00:20:03.762Z,0
2017-07-01T00:20:41.432Z,0
2017-07-01T00:21:19.102Z,0
2017-07-01T00:21:56.872Z,0
2017-07-01T00:22:34.937Z,0
2017-07-01T00:23:12.908Z,0
2017-07-01T00:23:50.979Z,0
2017-07-01T00:24:29.245Z,0
2017-07-01T00:25:07.117Z,0
2017-07-01T00:25:44.991Z,0
2017-07-01T00:26:22.664Z,0
2017-07-01T00:27:00.530Z,0
2017-07-01T00:27:38.852Z,0
2017-07-01T00:28:16.621Z,0
2017-07-01T00:28:54.189Z,0
2017-07-01T00:29:32.055Z,0
2017-07-01T00:30:09.825Z,0
2017-07-01T00:30:48.100Z,0
2017-07-01T00:31:25.770Z,0
2017-07-01T00:32:03.541Z,0
2017-07-01T00:32:41.112Z,0
2017-07-01T00:33:18.785Z,0
2017-07-01T00:33:56.674Z,0
2017-07-01T00:34:34.943Z,0
2017-07-01T00:35:12.618Z,0
2017-07-01T00:35:50.392Z,0
2017-07-01T00:36:28.083Z,0
2017-07-01T00:37:06.134Z,0
2017-07-01T00:37:44.306Z,0
2017-07-01T00:38:22.171Z,0
2017-07-01T00:39:00.138Z,0
2017-07-01T00:39:38.415Z,0
2017-07-01T00:40:15.983Z,0
2017-07-01T00:40:53.756Z,0
2017-07-01T00:41:31.532Z,0
2017-07-01T00:42:09.428Z,0
2017-07-01T00:42:47.390Z,0
2017-07-01T00:43:25.258Z,0
2017-07-01T00:44:02.936Z,0
2017-07-01T00:44:40.823Z,0
2017-07-01T00:45:18.594Z,0
2017-07-01T00:45:56.468Z,0
2017-07-01T00:46:34.642Z,0
2017-07-01T00:47:12.228Z,0
2017-07-01T00:47:50.302Z,0
2017-07-01T00:48:28.071Z,0
2017-07-01T00:49:05.737Z,0
2017-07-01T00:49:43.314Z,0
2017-07-01T00:50:21.395Z,0
2017-07-01T00:50:59.171Z,0
2017-07-01T00:51:37.443Z,0
2017-07-01T00:52:15.508Z,0
2017-07-01T00:52:53.278Z,0
2017-07-01T00:53:31.256Z,0
2017-07-01T00:54:08.839Z,0
2017-07-01T00:54:46.708Z,0
2017-07-01T00:55:24.588Z,0
2017-07-01T00:56:02.760Z,0
2017-07-01T00:56:40.443Z,0
2017-07-01T00:57:18.515Z,0
2017-07-01T00:57:56.479Z,0
2017-07-01T00:58:34.452Z,0
2017-07-01T00:59:12.536Z,0
2017-07-01T00:59:50.305Z,0
2017-07-01T01:00:28.472Z,0
2017-07-01T01:01:06.643Z,0
2017-07-01T01:01:44.339Z,0
2017-07-01T01:02:22.406Z,0
2017-07-01T01:03:00.289Z,0
2017-07-01T01:03:38.462Z,0
2017-07-01T01:04:16.432Z,0
2017-07-01T01:04:54.605Z,0
2017-07-01T01:05:32.377Z,0
2017-07-01T01:06:10.359Z,0
2017-07-01T01:06:48.234Z,0
2017-07-01T01:07:26.007Z,0
2017-07-01T01:08:04.484Z,0
2017-07-01T01:08:42.550Z,0
2017-07-01T01:09:20.922Z,0
2017-07-01T01:09:58.894Z,0
2017-07-01T01:10:37.300Z,0
2017-07-01T01:11:15.066Z,0
2017-07-01T01:11:52.938Z,0
2017-07-01T01:12:30.908Z,0
2017-07-01T01:13:08.777Z,0
2017-07-01T01:13:46.354Z,0
2017-07-01T01:14:24.335Z,0
2017-07-01T01:15:02.202Z,0
2017-07-01T01:15:39.972Z,0
2017-07-01T01:16:17.647Z,0
2017-07-01T01:16:55.626Z,0
2017-07-01T01:17:33.593Z,0
2017-07-01T01:18:11.766Z,0
2017-07-01T01:18:49.659Z,0
2017-07-01T01:19:27.530Z,0
2017-07-01T01:20:05.504Z,0
2017-07-01T01:20:43.579Z,0
2017-07-01T01:21:21.677Z,0
2017-07-01T01:21:59.553Z,0
2017-07-01T01:22:37.222Z,0
2017-07-01T01:23:15.293Z,0
2017-07-01T01:23:53.157Z,0
2017-07-01T01:24:31.125Z,0
2017-07-01T01:25:08.817Z,0
2017-07-01T01:25:46.899Z,0
2017-07-01T01:26:24.468Z,0
2017-07-01T01:27:02.449Z,0
2017-07-01T01:27:40.426Z,0
2017-07-01T01:28:18.625Z,0
2017-07-01T01:28:56.601Z,0
2017-07-01T01:29:34.467Z,0
2017-07-01T01:30:12.546Z,0
2017-07-01T01:30:50.820Z,0
2017-07-01T01:31:29.099Z,0
2017-07-01T01:32:07.574Z,0
2017-07-01T01:32:45.349Z,0
2017-07-01T01:33:23.331Z,0
2017-07-01T01:34:01.500Z,0
2017-07-01T01:34:39.274Z,0
2017-07-01T01:35:17.141Z,0
2017-07-01T01:35:55.008Z,0
2017-07-01T01:36:32.786Z,0
2017-07-01T01:37:10.768Z,0
2017-07-01T01:37:48.837Z,0
2017-07-01T01:38:26.812Z,0
2017-07-01T01:39:04.487Z,0
2017-07-01T01:39:42.265Z,0
2017-07-01T01:40:20.033Z,0
2017-07-01T01:40:57.720Z,0
2017-07-01T01:41:35.896Z,0
2017-07-01T01:42:14.172Z,0
2017-07-01T01:42:52.144Z,0
2017-07-01T01:43:30.020Z,0
2017-07-01T01:44:07.784Z,0
2017-07-01T01:44:45.783Z,0
2017-07-01T01:45:23.850Z,0
2017-07-01T01:46:01.718Z,0
2017-07-01T01:46:39.697Z,0
2017-07-01T01:47:17.570Z,0
2017-07-01T01:47:55.544Z,0
2017-07-01T01:48:33.413Z,0
2017-07-01T01:49:11.282Z,0
2017-07-01T01:49:49.053Z,0
2017-07-01T01:50:26.722Z,0
2017-07-01T01:51:04.596Z,0
2017-07-01T01:51:42.467Z,0
2017-07-01T01:52:20.550Z,0
2017-07-01T01:52:58.313Z,0
2017-07-01T01:53:35.779Z,0
2017-07-01T01:54:13.766Z,0
2017-07-01T01:54:51.528Z,0
2017-07-01T01:55:29.807Z,0
2017-07-01T01:56:07.787Z,0
2017-07-01T01:56:45.771Z,0
2017-07-01T01:57:23.542Z,0
2017-07-01T01:58:01.332Z,0
2017-07-01T01:58:38.914Z,0
2017-07-01T01:59:17.119Z,0
2017-07-01T01:59:54.748Z,0
2017-07-01T02:00:32.525Z,0
2017-07-01T02:01:10.399Z,0
2017-07-01T02:01:48.068Z,0
2017-07-01T02:02:25.851Z,0
2017-07-01T02:03:03.542Z,0
2017-07-01T02:03:41.518Z,0
2017-07-01T02:04:19.268Z,0
2017-07-01T02:04:57.442Z,0
2017-07-01T02:05:35.314Z,0
2017-07-01T02:06:13.083Z,0
2017-07-01T02:06:50.873Z,0
2017-07-01T02:07:28.745Z,0
2017-07-01T02:08:06.618Z,0
2017-07-01T02:08:44.587Z,0
2017-07-01T02:09:22.361Z,0
2017-07-01T02:10:00.427Z,0
2017-07-01T02:10:38.406Z,0
2017-07-01T02:11:16.175Z,0
2017-07-01T02:11:53.859Z,0
2017-07-01T02:12:31.526Z,0
2017-07-01T02:13:09.518Z,0
2017-07-01T02:13:47.689Z,0
2017-07-01T02:14:25.379Z,0
2017-07-01T02:15:03.150Z,0
2017-07-01T02:15:40.922Z,0
2017-07-01T02:16:18.903Z,0
2017-07-01T02:16:56.776Z,0
2017-07-01T02:17:34.643Z,0
2017-07-01T02:18:12.621Z,0
2017-07-01T02:18:50.398Z,0
2017-07-01T02:19:28.468Z,0
2017-07-01T02:20:06.336Z,0
2017-07-01T02:20:44.110Z,0
2017-07-01T02:21:21.971Z,0
2017-07-01T02:22:00.148Z,0
2017-07-01T02:22:37.923Z,0
2017-07-01T02:23:15.800Z,0
2017-07-01T02:23:53.776Z,0
2017-07-01T02:24:31.536Z,0
2017-07-01T02:25:09.206Z,0
2017-07-01T02:25:47.176Z,0
2017-07-01T02:26:25.055Z,0
2017-07-01T02:27:02.933Z,0
2017-07-01T02:27:41.008Z,0
2017-07-01T02:28:18.880Z,0
2017-07-01T02:28:56.357Z,0
2017-07-01T02:29:34.024Z,0
2017-07-01T02:30:12.000Z,0
2017-07-01T02:30:49.471Z,0
2017-07-01T02:31:27.441Z,0
2017-07-01T02:32:05.410Z,0
2017-07-01T02:32:43.583Z,0
2017-07-01T02:33:21.556Z,0
2017-07-01T02:33:59.320Z,0
2017-07-01T02:34:37.199Z,0
2017-07-01T02:35:14.967Z,0
2017-07-01T02:35:52.651Z,0
2017-07-01T02:36:30.425Z,0
2017-07-01T02:37:08.196Z,0
2017-07-01T02:37:45.877Z,0
2017-07-01T02:38:23.840Z,0
2017-07-01T02:39:02.012Z,0
2017-07-01T02:39:39.886Z,0
2017-07-01T02:40:17.661Z,0
2017-07-01T02:40:55.635Z,0
2017-07-01T02:41:33.513Z,0
2017-07-01T02:42:11.385Z,0
2017-07-01T02:42:49.358Z,0
2017-07-01T02:43:27.125Z,4
2017-07-01T02:44:04.993Z,4
2017-07-01T02:44:42.672Z,4
2017-07-01T02:45:20.639Z,4
2017-07-01T02:45:58.808Z,4
2017-07-01T02:46:36.579Z,4
2017-07-01T02:47:14.653Z,0
2017-07-01T02:47:52.523Z,0
2017-07-01T02:48:30.691Z,0
2017-07-01T02:49:08.367Z,4
2017-07-01T02:49:46.342Z,4
2017-07-01T02:50:24.412Z,4
2017-07-01T02:51:02.488Z,4
2017-07-01T02:51:40.058Z,4
2017-07-01T02:52:17.927Z,8
2017-07-01T02:52:55.796Z,4
2017-07-01T02:53:33.367Z,4
2017-07-01T02:54:11.133Z,8
2017-07-01T02:54:49.107Z,8
2017-07-01T02:55:26.973Z,8
2017-07-01T02:56:04.747Z,8
2017-07-01T02:56:42.827Z,8
2017-07-01T02:57:20.792Z,8
2017-07-01T02:57:58.761Z,12
2017-07-01T02:58:36.332Z,8
2017-07-01T02:59:14.309Z,12
2017-07-01T02:59:52.181Z,12
2017-07-01T03:00:30.267Z,16
2017-07-01T03:01:08.343Z,16
2017-07-01T03:01:46.217Z,16
2017-07-01T03:02:24.397Z,16
2017-07-01T03:03:02.175Z,24
2017-07-01T03:03:39.953Z,24
2017-07-01T03:04:17.925Z,24
2017-07-01T03:04:55.894Z,24
2017-07-01T03:05:33.370Z,24
2017-07-01T03:06:11.440Z,24
2017-07-01T03:06:49.510Z,28
2017-07-01T03:07:27.183Z,28
2017-07-01T03:08:04.663Z,32
2017-07-01T03:08:42.632Z,36
2017-07-01T03:09:20.602Z,36
2017-07-01T03:09:58.671Z,36
2017-07-01T03:10:36.543Z,36
2017-07-01T03:11:14.718Z,36
2017-07-01T03:11:52.691Z,36
2017-07-01T03:12:30.545Z,32
2017-07-01T03:13:08.416Z,36
2017-07-01T03:13:46.397Z,44
2017-07-01T03:14:24.364Z,44
2017-07-01T03:15:02.037Z,52
2017-07-01T03:15:39.817Z,52
2017-07-01T03:16:17.712Z,56
2017-07-01T03:16:55.785Z,60
2017-07-01T03:17:33.557Z,68
2017-07-01T03:18:11.227Z,72
2017-07-01T03:18:48.995Z,76
2017-07-01T03:19:26.761Z,80
2017-07-01T03:20:04.632Z,84
2017-07-01T03:20:42.502Z,92
2017-07-01T03:21:20.176Z,92
2017-07-01T03:21:58.146Z,104
2017-07-01T03:22:35.721Z,108
2017-07-01T03:23:13.297Z,116
2017-07-01T03:23:50.966Z,124
2017-07-01T03:24:28.938Z,132
2017-07-01T03:25:07.111Z,140
2017-07-01T03:25:45.199Z,144
2017-07-01T03:26:24.719Z,148
2017-07-01T03:27:02.389Z,144
2017-07-01T03:27:40.165Z,144
2017-07-01T03:28:18.236Z,140
2017-07-01T03:28:56.009Z,136
2017-07-01T03:29:33.683Z,132
2017-07-01T03:30:11.548Z,136
2017-07-01T03:30:49.320Z,136
2017-07-01T03:31:27.300Z,132
2017-07-01T03:32:05.171Z,116
2017-07-01T03:32:43.038Z,124
2017-07-01T03:33:20.920Z,148
2017-07-01T03:33:58.704Z,164
2017-07-01T03:34:36.674Z,220
2017-07-01T03:35:14.347Z,232
2017-07-01T03:35:52.423Z,208
2017-07-01T03:36:30.956Z,232
2017-07-01T03:37:08.836Z,212
2017-07-01T03:37:46.910Z,212
2017-07-01T03:38:24.989Z,216
2017-07-01T03:39:02.760Z,220
2017-07-01T03:39:40.631Z,204
2017-07-01T03:40:18.706Z,196
2017-07-01T03:40:56.576Z,204
2017-07-01T03:41:34.742Z,164
2017-07-01T03:42:12.727Z,212
2017-07-01T03:42:50.499Z,200
2017-07-01T03:43:28.677Z,208
2017-07-01T03:44:06.645Z,256
2017-07-01T03:44:44.330Z,304
2017-07-01T03:45:22.304Z,324
2017-07-01T03:46:00.474Z,316
2017-07-01T03:46:38.365Z,312
2017-07-01T03:47:16.039Z,324
2017-07-01T03:47:53.715Z,428
2017-07-01T03:48:31.595Z,328
2017-07-01T03:49:09.696Z,360
2017-07-01T03:49:47.372Z,352
2017-07-01T03:50:25.342Z,332
2017-07-01T03:51:03.430Z,348
2017-07-01T03:51:41.810Z,264
2017-07-01T03:52:19.978Z,256
2017-07-01T03:52:57.648Z,224
2017-07-01T03:53:35.524Z,268
2017-07-01T03:54:13.195Z,312
2017-07-01T03:54:51.384Z,288
2017-07-01T03:55:29.663Z,280
2017-07-01T03:56:07.643Z,308
2017-07-01T03:56:45.450Z,320
2017-07-01T03:57:23.318Z,280
2017-07-01T03:58:01.492Z,264
2017-07-01T03:58:39.359Z,364
2017-07-01T03:59:17.236Z,384
2017-07-01T03:59:55.113Z,424
2017-07-01T04:00:32.891Z,428
2017-07-01T04:01:10.666Z,400
2017-07-01T04:01:48.437Z,372
2017-07-01T04:02:26.541Z,376
2017-07-01T04:03:04.410Z,376
2017-07-01T04:03:42.382Z,260
2017-07-01T04:04:20.355Z,264
2017-07-01T04:04:58.147Z,312
2017-07-01T04:05:35.817Z,224
2017-07-01T04:06:13.499Z,256
2017-07-01T04:06:51.192Z,280
2017-07-01T04:07:28.775Z,280
2017-07-01T04:08:06.641Z,300
2017-07-01T04:08:44.532Z,296
2017-07-01T04:09:22.405Z,348
2017-07-01T04:10:00.580Z,432
2017-07-01T04:10:38.462Z,420
2017-07-01T04:11:16.234Z,368
2017-07-01T04:11:53.909Z,312
2017-07-01T04:12:31.779Z,356
2017-07-01T04:13:09.560Z,312
2017-07-01T04:13:47.363Z,288
2017-07-01T04:14:25.351Z,404
2017-07-01T04:15:03.014Z,408
2017-07-01T04:15:40.891Z,396
2017-07-01T04:16:18.867Z,392
2017-07-01T04:16:56.641Z,484
2017-07-01T04:17:34.633Z,532
2017-07-01T04:18:12.718Z,568
2017-07-01T04:18:50.392Z,612
2017-07-01T04:19:28.561Z,644
2017-07-01T04:20:06.444Z,660
2017-07-01T04:20:44.519Z,716
2017-07-01T04:21:22.391Z,628
2017-07-01T04:22:00.272Z,816
2017-07-01T04:22:38.048Z,808
2017-07-01T04:23:15.829Z,1112
2017-07-01T04:23:53.702Z,1156
2017-07-01T04:24:31.382Z,988
2017-07-01T04:25:09.257Z,972
2017-07-01T04:25:46.733Z,836
2017-07-01T04:26:24.814Z,624
2017-07-01T04:27:02.594Z,608
2017-07-01T04:27:40.467Z,648
2017-07-01T04:28:18.346Z,672
2017-07-01T04:28:56.419Z,784
2017-07-01T04:29:34.592Z,548
2017-07-01T04:30:12.373Z,536
2017-07-01T04:30:50.354Z,568
2017-07-01T04:31:28.135Z,580
2017-07-01T04:32:06.305Z,540
2017-07-01T04:32:44.287Z,476
2017-07-01T04:33:22.360Z,304
2017-07-01T04:34:00.439Z,256
2017-07-01T04:34:38.406Z,440
2017-07-01T04:35:16.335Z,440
2017-07-01T04:35:54.314Z,644
2017-07-01T04:36:31.786Z,508
2017-07-01T04:37:09.798Z,528
2017-07-01T04:37:47.475Z,440
2017-07-01T04:38:25.052Z,460
2017-07-01T04:39:03.246Z,536
2017-07-01T04:39:40.823Z,672
2017-07-01T04:40:18.499Z,724
2017-07-01T04:40:56.464Z,680
2017-07-01T04:41:34.645Z,688
2017-07-01T04:42:12.521Z,688
2017-07-01T04:42:50.420Z,636
2017-07-01T04:43:28.295Z,740
2017-07-01T04:44:06.285Z,740
2017-07-01T04:44:44.363Z,752
2017-07-01T04:45:22.412Z,756
2017-07-01T04:46:01.093Z,728
2017-07-01T04:46:38.968Z,796
2017-07-01T04:47:16.843Z,680
2017-07-01T04:47:55.022Z,820
2017-07-01T04:48:32.605Z,1020
2017-07-01T04:49:10.193Z,1312
2017-07-01T04:49:47.868Z,1284
2017-07-01T04:50:25.849Z,1168
2017-07-01T04:51:03.828Z,1044
2017-07-01T04:51:41.614Z,1084
2017-07-01T04:52:19.587Z,1188
2017-07-01T04:52:57.465Z,1328
2017-07-01T04:53:35.848Z,1524
2017-07-01T04:54:13.828Z,1356
2017-07-01T04:54:51.895Z,1080
2017-07-01T04:55:29.673Z,1004
2017-07-01T04:56:07.345Z,992
2017-07-01T04:56:45.124Z,904
2017-07-01T04:57:22.796Z,1128
2017-07-01T04:58:00.871Z,1120
2017-07-01T04:58:39.458Z,1104
2017-07-01T04:59:17.241Z,816
2017-07-01T04:59:55.019Z,816
2017-07-01T05:00:32.795Z,904
2017-07-01T05:01:10.475Z,996
2017-07-01T05:01:48.355Z,940
2017-07-01T05:02:25.936Z,832
2017-07-01T05:03:03.703Z,656
2017-07-01T05:03:41.485Z,980
2017-07-01T05:04:19.440Z,848
2017-07-01T05:04:57.518Z,696
2017-07-01T05:05:35.486Z,968
2017-07-01T05:06:13.172Z,1404
2017-07-01T05:06:50.851Z,1336
2017-07-01T05:07:28.817Z,1288
2017-07-01T05:08:06.697Z,1268
2017-07-01T05:08:44.570Z,1500
2017-07-01T05:09:22.644Z,1688
2017-07-01T05:10:00.419Z,1600
2017-07-01T05:10:38.289Z,1652
2017-07-01T05:11:15.959Z,1824
2017-07-01T05:11:53.735Z,1916
2017-07-01T05:12:31.620Z,1600
2017-07-01T05:13:09.198Z,1376
2017-07-01T05:13:47.375Z,1412
2017-07-01T05:14:25.054Z,1684
2017-07-01T05:15:02.731Z,1664
2017-07-01T05:15:40.405Z,1468
2017-07-01T05:16:18.279Z,1600
2017-07-01T05:16:56.253Z,1316
2017-07-01T05:17:33.732Z,1276
2017-07-01T05:18:11.508Z,1124
2017-07-01T05:18:49.292Z,916
2017-07-01T05:19:27.466Z,952
2017-07-01T05:20:05.348Z,1660
2017-07-01T05:20:43.433Z,1744
2017-07-01T05:21:21.406Z,1720
2017-07-01T05:21:59.086Z,1880
2017-07-01T05:22:36.768Z,1868
2017-07-01T05:23:14.541Z,1984
2017-07-01T05:23:52.221Z,1700
2017-07-01T05:24:30.105Z,1824
2017-07-01T05:25:07.870Z,1616
2017-07-01T05:25:46.049Z,2028
2017-07-01T05:26:26.380Z,1640
2017-07-01T05:27:04.464Z,2152
2017-07-01T05:27:42.235Z,1968
2017-07-01T05:28:20.412Z,2456
2017-07-01T05:28:58.189Z,2576
2017-07-01T05:29:36.168Z,1712
2017-07-01T05:30:13.938Z,1684
2017-07-01T05:30:51.714Z,2072
2017-07-01T05:31:29.489Z,1956
2017-07-01T05:32:07.367Z,1588
2017-07-01T05:32:45.149Z,1312
2017-07-01T05:33:23.222Z,1300
2017-07-01T05:34:01.113Z,1548
2017-07-01T05:34:39.231Z,1592
2017-07-01T05:35:17.224Z,1680
2017-07-01T05:35:55.094Z,1608
2017-07-01T05:36:33.180Z,1208
2017-07-01T05:37:11.473Z,1124
2017-07-01T05:37:49.256Z,1236
2017-07-01T05:38:26.835Z,1236
2017-07-01T05:39:04.911Z,1436
2017-07-01T05:39:42.886Z,1616
2017-07-01T05:40:20.865Z,1872
2017-07-01T05:40:58.834Z,1828
2017-07-01T05:41:36.624Z,1628
2017-07-01T05:42:14.711Z,2076
2017-07-01T05:42:52.492Z,1736
2017-07-01T05:43:31.439Z,1344
2017-07-01T05:44:09.410Z,1652
2017-07-01T05:44:47.389Z,1416
2017-07-01T05:45:24.963Z,1264
2017-07-01T05:46:03.135Z,1428
2017-07-01T05:46:41.116Z,1700
2017-07-01T05:47:19.080Z,1648
2017-07-01T05:47:57.158Z,1752
2017-07-01T05:48:35.033Z,1844
2017-07-01T05:49:12.810Z,1652
2017-07-01T05:49:50.591Z,1988
2017-07-01T05:50:28.460Z,2252
2017-07-01T05:51:06.340Z,2332
2017-07-01T05:51:44.212Z,2248
2017-07-01T05:52:22.291Z,2188
2017-07-01T05:53:00.266Z,2584
2017-07-01T05:53:38.137Z,2208
2017-07-01T05:54:15.916Z,2336
2017-07-01T05:54:53.992Z,2644
2017-07-01T05:55:31.968Z,2504
2017-07-01T05:56:09.838Z,2272
2017-07-01T05:56:47.714Z,2572
2017-07-01T05:57:25.508Z,2376
2017-07-01T05:58:03.292Z,2204
2017-07-01T05:58:41.381Z,2156
2017-07-01T05:59:19.255Z,2244
2017-07-01T05:59:57.034Z,2044
2017-07-01T06:00:34.602Z,1628
2017-07-01T06:01:12.679Z,1556
2017-07-01T06:01:50.760Z,1888
2017-07-01T06:02:28.835Z,2716
2017-07-01T06:03:07.009Z,2468
2017-07-01T06:03:44.782Z,2668
2017-07-01T06:04:22.563Z,2152
2017-07-01T06:05:00.648Z,1628
2017-07-01T06:05:39.034Z,1456
2017-07-01T06:06:17.107Z,1908
2017-07-01T06:06:54.981Z,2212
2017-07-01T06:07:32.952Z,1868
2017-07-01T06:08:10.828Z,1492
2017-07-01T06:08:48.695Z,1352
2017-07-01T06:09:26.968Z,2060
2017-07-01T06:10:04.735Z,2884
2017-07-01T06:10:42.714Z,3188
2017-07-01T06:11:20.584Z,3284
2017-07-01T06:11:58.454Z,2516
2017-07-01T06:12:36.030Z,2340
2017-07-01T06:13:13.806Z,2176
2017-07-01T06:13:51.983Z,2532
2017-07-01T06:14:29.755Z,2480
2017-07-01T06:15:07.633Z,2592
2017-07-01T06:15:45.309Z,2708
2017-07-01T06:16:24.034Z,2972
2017-07-01T06:17:02.321Z,2824
2017-07-01T06:17:40.009Z,2524
2017-07-01T06:18:17.683Z,2680
2017-07-01T06:18:55.458Z,3028
2017-07-01T06:19:33.040Z,3356
2017-07-01T06:20:10.917Z,2776
2017-07-01T06:20:48.885Z,3372
2017-07-01T06:21:26.558Z,3644
2017-07-01T06:22:04.435Z,3836
2017-07-01T06:22:42.120Z,3672
2017-07-01T06:23:19.790Z,3392
2017-07-01T06:23:57.968Z,3696
2017-07-01T06:24:35.542Z,4200
2017-07-01T06:25:13.513Z,4784
2017-07-01T06:25:51.008Z,5024
2017-07-01T06:26:28.640Z,5504
2017-07-01T06:27:06.618Z,6056
2017-07-01T06:27:44.907Z,6484
2017-07-01T06:28:22.886Z,6836
2017-07-01T06:29:00.876Z,7216
2017-07-01T06:29:38.649Z,7508
2017-07-01T06:30:16.625Z,7884
2017-07-01T06:30:54.309Z,8216
2017-07-01T06:31:31.988Z,8712
2017-07-01T06:32:09.565Z,8804
2017-07-01T06:32:47.147Z,9148
2017-07-01T06:33:25.334Z,8748
2017-07-01T06:34:03.506Z,8260
2017-07-01T06:34:41.376Z,7684
2017-07-01T06:35:19.356Z,7832
2017-07-01T06:35:58.562Z,7528
2017-07-01T06:36:36.236Z,6872
2017-07-01T06:37:13.834Z,6544
2017-07-01T06:37:51.806Z,6380
2017-07-01T06:38:29.886Z,6100
2017-07-01T06:39:07.858Z,5956
2017-07-01T06:39:45.746Z,5092
2017-07-01T06:40:23.723Z,4380
2017-07-01T06:41:01.704Z,4612
2017-07-01T06:41:39.383Z,4876
2017-07-01T06:42:17.145Z,4252
2017-07-01T06:42:55.260Z,4164
2017-07-01T06:43:33.134Z,4336
2017-07-01T06:44:11.018Z,4624
2017-07-01T06:44:48.795Z,5268
2017-07-01T06:45:26.671Z,5408
2017-07-01T06:46:04.558Z,5184
2017-07-01T06:46:42.144Z,5212
2017-07-01T06:47:20.220Z,4828
2017-07-01T06:47:58.123Z,4284
2017-07-01T06:48:35.904Z,3868
2017-07-01T06:49:13.590Z,3640
2017-07-01T06:49:51.274Z,3528
2017-07-01T06:50:29.351Z,2728
2017-07-01T06:51:07.434Z,2480
2017-07-01T06:51:45.507Z,2372
2017-07-01T06:52:23.388Z,2628
2017-07-01T06:53:01.077Z,2968
2017-07-01T06:53:38.747Z,2888
2017-07-01T06:54:16.632Z,2848
2017-07-01T06:54:54.521Z,2928
2017-07-01T06:55:32.500Z,4988
2017-07-01T06:56:10.385Z,4392
2017-07-01T06:56:47.966Z,4164
2017-07-01T06:57:26.070Z,3872
2017-07-01T06:58:04.528Z,3976
2017-07-01T06:58:42.223Z,4180
2017-07-01T06:59:20.201Z,5480
2017-07-01T06:59:58.178Z,5600
2017-07-01T07:00:36.061Z,5624
2017-07-01T07:01:14.046Z,5564
2017-07-01T07:01:51.931Z,4996
2017-07-01T07:02:29.609Z,4768
2017-07-01T07:03:07.589Z,4244
2017-07-01T07:03:45.179Z,3220
2017-07-01T07:04:23.054Z,3216
2017-07-01T07:05:01.035Z,3236
2017-07-01T07:05:38.748Z,3192
2017-07-01T07:06:16.521Z,3148
2017-07-01T07:06:54.714Z,3928
2017-07-01T07:07:32.590Z,3632
2017-07-01T07:08:10.673Z,4948
2017-07-01T07:08:48.557Z,6024
2017-07-01T07:09:26.236Z,6692
2017-07-01T07:10:04.224Z,6600
2017-07-01T07:10:42.098Z,6592
2017-07-01T07:11:20.193Z,6700
2017-07-01T07:11:57.770Z,7052
2017-07-01T07:12:35.457Z,6920
2017-07-01T07:13:13.245Z,7140
2017-07-01T07:13:51.020Z,7032
2017-07-01T07:14:28.609Z,6748
2017-07-01T07:15:06.592Z,6684
2017-07-01T07:15:44.372Z,6908
2017-07-01T07:16:24.067Z,6760
2017-07-01T07:17:01.302Z,6572
2017-07-01T07:17:39.682Z,6504
2017-07-01T07:18:17.462Z,6476
2017-07-01T07:18:54.935Z,6152
2017-07-01T07:19:32.518Z,6068
2017-07-01T07:20:10.299Z,6156
2017-07-01T07:20:48.276Z,5800
2017-07-01T07:21:26.355Z,5328
2017-07-01T07:22:04.236Z,5300
2017-07-01T07:22:42.017Z,5296
2017-07-01T07:23:19.998Z,4684
2017-07-01T07:23:58.276Z,4868
2017-07-01T07:24:36.253Z,4504
2017-07-01T07:25:14.132Z,5568
2017-07-01T07:25:52.207Z,6188
2017-07-01T07:26:30.182Z,6620
2017-07-01T07:27:08.259Z,6800
2017-07-01T07:27:46.444Z,6552
2017-07-01T07:28:24.826Z,6420
2017-07-01T07:29:02.907Z,6468
2017-07-01T07:29:40.681Z,7200
2017-07-01T07:30:18.560Z,7128
2017-07-01T07:30:56.338Z,6912
2017-07-01T07:31:34.438Z,6776
2017-07-01T07:32:12.516Z,5960
2017-07-01T07:32:50.592Z,5512
2017-07-01T07:33:28.878Z,7696
2017-07-01T07:34:06.971Z,7592
2017-07-01T07:34:44.957Z,7124
2017-07-01T07:35:23.041Z,6624
2017-07-01T07:36:00.931Z,7252
2017-07-01T07:36:38.712Z,8416
2017-07-01T07:37:16.695Z,9408
2017-07-01T07:37:54.369Z,9976
2017-07-01T07:38:32.541Z,10548
2017-07-01T07:39:10.427Z,10888
2017-07-01T07:39:48.311Z,11488
2017-07-01T07:40:26.195Z,11084
2017-07-01T07:41:03.982Z,10544
2017-07-01T07:41:41.865Z,10036
2017-07-01T07:42:19.749Z,9760
2017-07-01T07:42:57.435Z,8688
2017-07-01T07:43:35.217Z,7496
2017-07-01T07:44:13.208Z,8412
2017-07-01T07:44:50.984Z,9024
2017-07-01T07:45:29.064Z,8792
2017-07-01T07:46:06.946Z,7260
2017-07-01T07:46:44.722Z,7216
2017-07-01T07:47:22.808Z,6152
2017-07-01T07:48:00.689Z,6580
2017-07-01T07:48:38.271Z,6144
2017-07-01T07:49:16.146Z,5244
2017-07-01T07:49:53.828Z,5680
2017-07-01T07:50:32.021Z,7312
2017-07-01T07:51:10.003Z,9672
2017-07-01T07:51:47.986Z,10608
2017-07-01T07:52:25.670Z,10932
2017-07-01T07:53:03.541Z,11096
2017-07-01T07:53:41.521Z,11500
2017-07-01T07:54:19.467Z,12040
2017-07-01T07:54:57.549Z,12368
2017-07-01T07:55:35.526Z,12412
2017-07-01T07:56:13.625Z,12352
2017-07-01T07:56:51.508Z,12216
2017-07-01T07:57:29.593Z,11908
2017-07-01T07:58:07.568Z,11564
2017-07-01T07:58:45.652Z,11576
2017-07-01T07:59:23.640Z,11388
2017-07-01T08:00:01.622Z,11068
2017-07-01T08:00:39.410Z,10956
2017-07-01T08:01:17.293Z,11000
2017-07-01T08:01:54.980Z,11404
2017-07-01T08:02:32.562Z,11880
2017-07-01T08:03:10.545Z,12756
2017-07-01T08:03:48.324Z,11172
2017-07-01T08:04:26.210Z,10676
2017-07-01T08:05:04.298Z,9388
2017-07-01T08:05:41.885Z,12192
2017-07-01T08:06:19.871Z,13420
2017-07-01T08:06:57.650Z,12468
2017-07-01T08:07:35.634Z,11264
2017-07-01T08:08:13.518Z,9908
2017-07-01T08:08:51.094Z,9852
2017-07-01T08:09:28.883Z,7496
2017-07-01T08:10:06.567Z,7560
2017-07-01T08:10:44.550Z,8328
2017-07-01T08:11:22.523Z,9508
2017-07-01T08:12:00.400Z,9236
2017-07-01T08:12:38.384Z,10056
2017-07-01T08:13:16.477Z,8780
2017-07-01T08:13:54.056Z,8316
2017-07-01T08:14:32.140Z,7464
2017-07-01T08:15:10.323Z,7280
2017-07-01T08:15:48.104Z,8992
2017-07-01T08:16:25.885Z,8940
2017-07-01T08:17:03.881Z,8992
2017-07-01T08:17:41.857Z,10552
2017-07-01T08:18:19.745Z,11340
2017-07-01T08:18:57.830Z,11628
2017-07-01T08:19:35.709Z,10412
2017-07-01T08:20:13.491Z,11656
2017-07-01T08:20:51.391Z,12852
2017-07-01T08:21:29.385Z,13700
2017-07-01T08:22:06.965Z,14972
2017-07-01T08:22:44.848Z,15212
2017-07-01T08:23:22.639Z,17768
2017-07-01T08:24:00.428Z,20064
2017-07-01T08:24:38.416Z,20000
2017-07-01T08:25:16.403Z,21664
2017-07-01T08:25:54.189Z,20448
2017-07-01T08:26:32.091Z,16040
2017-07-01T08:27:10.065Z,15320
2017-07-01T08:27:47.854Z,14680
2017-07-01T08:28:25.649Z,12460
2017-07-01T08:29:03.937Z,12864
2017-07-01T08:29:41.920Z,10692
2017-07-01T08:30:19.827Z,7728
2017-07-01T08:30:58.354Z,6348
2017-07-01T08:31:36.457Z,8480
2017-07-01T08:32:15.533Z,8204
2017-07-01T08:32:54.242Z,7772
2017-07-01T08:33:32.413Z,7324
2017-07-01T08:34:10.197Z,7592
2017-07-01T08:34:48.099Z,6792
2017-07-01T08:35:25.908Z,6696
2017-07-01T08:36:03.546Z,6764
2017-07-01T08:36:41.138Z,8260
2017-07-01T08:37:18.922Z,10880
2017-07-01T08:37:56.910Z,13228
2017-07-01T08:38:34.689Z,11616
2017-07-01T08:39:12.578Z,13936
2017-07-01T08:39:50.458Z,17956
2017-07-01T08:40:28.330Z,21440
2017-07-01T08:41:06.415Z,21760
2017-07-01T08:41:43.999Z,22592
2017-07-01T08:42:21.876Z,20640
2017-07-01T08:42:59.655Z,18176
2017-07-01T08:43:37.548Z,14956
2017-07-01T08:44:15.419Z,13036
2017-07-01T08:44:53.101Z,11384
2017-07-01T08:45:31.184Z,9928